Time,TemperatureF,DewpointF,PressureIn,WindDirection,WindDirectionDegrees,WindSpeedMPH,WindSpeedGustMPH,Humidity,HourlyPrecipIn,Conditions,Clouds,dailyrainin,SolarRadiationWatts/m^2,SoftwareType,DateUTC
2013-01-18 00:03:00,48.2,35.8,30.06,North,355,4.6,4.6,62,0.00,,SKC,0.00,0.0,WeatherDisplay:10.37,2013-01-18 08:03:00,
2013-01-18 00:08:00,48.4,36.0,30.06,NNE,27,4.6,4.6,62,0.00,,SKC,0.00,0.0,WeatherDisplay:10.37,2013-01-18 08:08:00,
2013-01-18 00:13:00,48.3,35.9,30.06,NE,46,3.5,3.5,62,0.00,,SKC,0.00,0.0,WeatherDisplay:10.37,2013-01-18 08:13:00,
2013-01-18 00:18:00,48.2,35.8,30.06,NNE,16,5.0,5.0,62,0.00,,SKC,0.00,0.0,WeatherDisplay:10.37,2013-01-18 08:18:00,
2013-01-18 00:23:00,48.2,35.8,30.06,North,355,3.5,3.5,62,0.00,,SKC,0.00,0.0,WeatherDisplay:10.37,2013-01-18 08:23:00,
2013-01-18 00:28:00,47.9,35.5,30.06,North,355,2.3,2.3,62,0.00,,SKC,0.00,0.0,WeatherDisplay:10.37,2013-01-18 08:28:00,
2013-01-18 00:33:00,47.6,35.6,30.06,North,355,3.5,3.5,63,0.00,,SKC,0.00,0.0,WeatherDisplay:10.37,2013-01-18 08:33:00,
2013-01-18 00:38:00,47.2,35.6,30.06,North,355,3.5,3.5,64,0.00,,SKC,0.00,0.0,WeatherDisplay:10.37,2013-01-18 08:38:00,
2013-01-18 00:43:00,46.8,35.6,30.06,North,355,2.3,2.3,65,0.00,,SKC,0.00,0.0,WeatherDisplay:10.37,2013-01-18 08:43:00,
2013-01-18 00:48:00,46.5,35.7,30.06,North,355,2.3,2.3,66,0.00,,SKC,0.00,0.0,WeatherDisplay:10.37,2013-01-18 08:48:00,
2013-01-18 00:53:00,46.0,35.7,30.07,North,355,2.3,2.3,67,0.00,,SKC,0.00,0.0,WeatherDisplay:10.37,2013-01-18 08:53:00,
2013-01-18 00:58:00,45.8,35.5,30.07,North,355,3.5,3.5,67,0.00,,SKC,0.00,0.0,WeatherDisplay:10.37,2013-01-18 08:58:00,
2013-01-18 01:03:00,45.6,35.6,30.07,North,355,3.5,3.5,68,0.00,,SKC,0.00,0.0,WeatherDisplay:10.37,2013-01-18 09:03:00,
2013-01-18 01:08:00,45.4,35.5,30.07,North,355,3.5,3.5,68,0.00,,SKC,0.00,0.0,WeatherDisplay:10.37,2013-01-18 09:08:00,
2013-01-18 01:13:00,45.1,35.5,30.07,North,355,3.5,3.5,69,0.00,,SKC,0.00,0.0,WeatherDisplay:10.37,2013-01-18 09:13:00,
2013-01-18 01:18:00,44.8,35.6,30.07,North,355,3.5,3.5,70,0.00,,SKC,0.00,0.0,WeatherDisplay:10.37,2013-01-18 09:18:00,
2013-01-18 01:23:00,44.5,35.3,30.07,North,355,4.6,4.6,70,0.00,,SKC,0.00,0.0,WeatherDisplay:10.37,2013-01-18 09:23:00,
2013-01-18 01:28:00,44.4,35.2,30.07,North,355,3.5,3.5,70,0.00,,SKC,0.00,0.0,WeatherDisplay:10.37,2013-01-18 09:28:00,
2013-01-18 01:33:00,44.1,35.3,30.07,North,355,3.5,3.5,71,0.00,,SKC,0.00,0.0,WeatherDisplay:10.37,2013-01-18 09:33:00,
2013-01-18 01:38:00,43.8,35.0,30.07,North,355,4.6,4.6,71,0.00,,SKC,0.00,0.0,WeatherDisplay:10.37,2013-01-18 09:38:00,
2013-01-18 01:43:00,43.6,35.2,30.07,North,355,3.5,3.5,72,0.00,,SKC,0.00,0.0,WeatherDisplay:10.37,2013-01-18 09:43:00,
2013-01-18 01:48:00,43.4,35.0,30.07,North,355,3.5,3.5,72,0.00,,SKC,0.00,0.0,WeatherDisplay:10.37,2013-01-18 09:48:00,
2013-01-18 01:53:00,43.2,35.1,30.07,North,355,3.5,3.5,73,0.00,,SKC,0.00,0.0,WeatherDisplay:10.37,2013-01-18 09:53:00,
2013-01-18 01:58:00,43.2,35.5,30.07,North,355,4.0,4.0,74,0.00,,SKC,0.00,0.0,WeatherDisplay:10.37,2013-01-18 09:58:00,
2013-01-18 02:03:00,43.3,35.6,30.07,North,360,4.6,4.6,74,0.00,,SKC,0.00,0.0,WeatherDisplay:10.37,2013-01-18 10:03:00,
2013-01-18 02:08:00,43.4,35.3,30.07,North,355,5.8,5.8,73,0.00,,SKC,0.00,0.0,WeatherDisplay:10.37,2013-01-18 10:08:00,
2013-01-18 02:13:00,43.6,35.5,30.07,North,5,4.0,4.0,73,0.00,,SKC,0.00,0.0,WeatherDisplay:10.37,2013-01-18 10:13:00,
2013-01-18 02:18:00,43.5,35.1,30.07,North,5,4.0,4.0,72,0.00,,SKC,0.00,0.0,WeatherDisplay:10.37,2013-01-18 10:18:00,
2013-01-18 02:23:00,43.5,35.1,30.07,North,5,3.5,3.5,72,0.00,,SKC,0.00,0.0,WeatherDisplay:10.37,2013-01-18 10:23:00,
2013-01-18 02:28:00,43.4,35.0,30.07,North,5,3.5,3.5,72,0.00,,SKC,0.00,0.0,WeatherDisplay:10.37,2013-01-18 10:28:00,
2013-01-18 02:33:00,43.3,34.9,30.07,North,5,2.3,2.3,72,0.00,,SKC,0.00,0.0,WeatherDisplay:10.37,2013-01-18 10:33:00,
2013-01-18 02:39:00,43.2,34.8,30.07,North,5,3.5,3.5,72,0.00,,SKC,0.00,0.0,WeatherDisplay:10.37,2013-01-18 10:39:00,
2013-01-18 02:44:00,43.1,34.7,30.07,North,5,2.3,2.3,72,0.00,,SKC,0.00,0.0,WeatherDisplay:10.37,2013-01-18 10:44:00,
2013-01-18 02:49:00,43.1,35.0,30.07,North,5,3.5,3.5,73,0.00,,SKC,0.00,0.0,WeatherDisplay:10.37,2013-01-18 10:49:00,
2013-01-18 02:54:00,43.3,34.9,30.07,North,5,3.5,3.5,72,0.00,,SKC,0.00,0.0,WeatherDisplay:10.37,2013-01-18 10:54:00,
2013-01-18 02:59:00,43.6,35.2,30.07,North,5,3.5,3.5,72,0.00,,SKC,0.00,0.0,WeatherDisplay:10.37,2013-01-18 10:59:00,
2013-01-18 03:04:00,43.6,35.2,30.07,North,5,3.5,3.5,72,0.00,,SKC,0.00,0.0,WeatherDisplay:10.37,2013-01-18 11:04:00,
2013-01-18 03:09:00,43.5,35.1,30.07,North,5,3.5,3.5,72,0.00,,SKC,0.00,0.0,WeatherDisplay:10.37,2013-01-18 11:09:00,
2013-01-18 03:14:00,43.6,35.2,30.07,North,5,3.5,3.5,72,0.00,,SKC,0.00,0.0,WeatherDisplay:10.37,2013-01-18 11:14:00,
2013-01-18 03:19:00,43.9,35.1,30.07,North,5,3.5,3.5,71,0.00,,SKC,0.00,0.0,WeatherDisplay:10.37,2013-01-18 11:19:00,
2013-01-18 03:24:00,44.1,34.9,30.06,North,5,3.5,3.5,70,0.00,,SKC,0.00,0.0,WeatherDisplay:10.37,2013-01-18 11:24:00,
2013-01-18 03:29:00,44.2,35.0,30.06,NNE,28,3.5,3.5,70,0.00,,SKC,0.00,0.0,WeatherDisplay:10.37,2013-01-18 11:29:00,
2013-01-18 03:34:00,43.9,34.7,30.06,NNE,28,4.0,4.0,70,0.00,,SKC,0.00,0.0,WeatherDisplay:10.37,2013-01-18 11:34:00,
2013-01-18 03:39:00,43.7,34.9,30.06,North,355,4.6,4.6,71,0.00,,SKC,0.00,0.0,WeatherDisplay:10.37,2013-01-18 11:39:00,
2013-01-18 03:44:00,43.7,34.6,30.06,North,355,3.5,3.5,70,0.00,,SKC,0.00,0.0,WeatherDisplay:10.37,2013-01-18 11:44:00,
2013-01-18 03:49:00,43.7,34.6,30.06,North,360,4.0,4.0,70,0.00,,SKC,0.00,0.0,WeatherDisplay:10.37,2013-01-18 11:49:00,
2013-01-18 03:54:00,43.7,34.6,30.06,North,360,5.8,5.8,70,0.00,,SKC,0.00,0.0,WeatherDisplay:10.37,2013-01-18 11:54:00,
2013-01-18 03:59:00,43.7,34.6,30.06,North,360,3.5,3.5,70,0.00,,SKC,0.00,0.0,WeatherDisplay:10.37,2013-01-18 11:59:00,
2013-01-18 04:04:00,43.7,34.6,30.06,NNE,33,5.8,5.8,70,0.00,,SKC,0.00,0.0,WeatherDisplay:10.37,2013-01-18 12:04:00,
2013-01-18 04:09:00,43.6,34.5,30.06,NE,44,3.5,3.5,70,0.00,,SKC,0.00,0.0,WeatherDisplay:10.37,2013-01-18 12:09:00,
2013-01-18 04:14:00,43.6,34.5,30.06,NE,37,4.6,4.6,70,0.00,,SKC,0.00,0.0,WeatherDisplay:10.37,2013-01-18 12:14:00,
2013-01-18 04:19:00,44.2,34.7,30.06,NNE,32,4.6,4.6,69,0.00,,SKC,0.00,0.0,WeatherDisplay:10.37,2013-01-18 12:19:00,
2013-01-18 04:24:00,44.4,34.5,30.06,NE,34,3.5,3.5,68,0.00,,SKC,0.00,0.0,WeatherDisplay:10.37,2013-01-18 12:24:00,
2013-01-18 04:29:00,44.4,34.5,30.06,NE,34,1.2,1.2,68,0.00,,SKC,0.00,0.0,WeatherDisplay:10.37,2013-01-18 12:29:00,
2013-01-18 04:34:00,44.6,34.3,30.06,NE,34,3.5,3.5,67,0.00,,SKC,0.00,0.0,WeatherDisplay:10.37,2013-01-18 12:34:00,
2013-01-18 04:39:00,45.2,34.5,30.05,NE,34,3.5,3.5,66,0.00,,SKC,0.00,0.0,WeatherDisplay:10.37,2013-01-18 12:39:00,
2013-01-18 04:44:00,45.7,34.6,30.05,NE,45,4.6,4.6,65,0.00,,SKC,0.00,0.0,WeatherDisplay:10.37,2013-01-18 12:44:00,
2013-01-18 04:49:00,46.2,34.7,30.05,NE,34,4.6,4.6,64,0.00,,SKC,0.00,0.0,WeatherDisplay:10.37,2013-01-18 12:49:00,
2013-01-18 04:54:00,46.5,34.6,30.05,NE,42,4.6,4.6,63,0.00,,SKC,0.00,0.0,WeatherDisplay:10.37,2013-01-18 12:54:00,
2013-01-18 04:59:00,46.6,34.3,30.05,NE,40,3.5,3.5,62,0.00,,SKC,0.00,0.0,WeatherDisplay:10.37,2013-01-18 12:59:00,
2013-01-18 05:04:00,46.9,34.6,30.05,NE,41,3.5,3.5,62,0.00,,SKC,0.00,0.0,WeatherDisplay:10.37,2013-01-18 13:04:00,
2013-01-18 05:09:00,47.2,34.4,30.04,NE,42,2.3,2.3,61,0.00,,SKC,0.00,0.0,WeatherDisplay:10.37,2013-01-18 13:09:00,
2013-01-18 05:14:00,47.0,34.2,30.04,NE,42,3.5,3.5,61,0.00,,SKC,0.00,0.0,WeatherDisplay:10.37,2013-01-18 13:14:00,
2013-01-18 05:19:00,47.0,34.2,30.04,NE,41,1.0,0.0,61,0.00,,SKC,0.00,0.0,WeatherDisplay:10.37,2013-01-18 13:19:00,
2013-01-18 05:24:00,46.5,34.2,30.04,NE,41,2.3,2.3,62,0.00,,SKC,0.00,0.0,WeatherDisplay:10.37,2013-01-18 13:24:00,
2013-01-18 05:29:00,45.4,33.9,30.04,North,360,4.6,4.6,64,0.00,,SKC,0.00,0.0,WeatherDisplay:10.37,2013-01-18 13:29:00,
2013-01-18 05:34:00,43.9,33.6,30.04,North,360,3.5,3.5,67,0.00,,SKC,0.00,0.0,WeatherDisplay:10.37,2013-01-18 13:34:00,
2013-01-18 05:39:00,42.7,33.6,30.04,North,360,3.5,3.5,70,0.00,,SKC,0.00,0.0,WeatherDisplay:10.37,2013-01-18 13:39:00,
2013-01-18 05:44:00,42.0,33.6,30.04,North,360,3.5,3.5,72,0.00,,SKC,0.00,0.0,WeatherDisplay:10.37,2013-01-18 13:44:00,
2013-01-18 05:49:00,41.6,33.6,30.04,North,360,4.0,4.0,73,0.00,,SKC,0.00,0.0,WeatherDisplay:10.37,2013-01-18 13:49:00,
2013-01-18 05:54:00,41.9,33.5,30.04,North,360,4.6,4.6,72,0.00,,SKC,0.00,0.0,WeatherDisplay:10.37,2013-01-18 13:54:00,
2013-01-18 05:59:00,42.0,33.6,30.04,NNW,346,5.8,5.8,72,0.00,,SKC,0.00,0.0,WeatherDisplay:10.37,2013-01-18 13:59:00,
2013-01-18 06:04:00,42.6,33.9,30.04,NNW,348,4.6,4.6,71,0.00,,SKC,0.00,0.0,WeatherDisplay:10.37,2013-01-18 14:04:00,
2013-01-18 06:09:00,42.7,33.9,30.04,North,360,3.5,3.5,71,0.00,,SKC,0.00,0.0,WeatherDisplay:10.37,2013-01-18 14:09:00,
2013-01-18 06:14:00,42.7,33.9,30.04,North,360,4.0,4.0,71,0.00,,SKC,0.00,0.0,WeatherDisplay:10.37,2013-01-18 14:14:00,
2013-01-18 06:19:00,42.6,33.9,30.04,North,360,3.5,3.5,71,0.00,,SKC,0.00,0.0,WeatherDisplay:10.37,2013-01-18 14:19:00,
2013-01-18 06:24:00,42.6,33.9,30.05,North,360,3.5,3.5,71,0.00,,SKC,0.00,0.0,WeatherDisplay:10.37,2013-01-18 14:24:00,
2013-01-18 06:29:00,42.6,33.9,30.05,North,360,3.5,3.5,71,0.00,,SKC,0.00,0.0,WeatherDisplay:10.37,2013-01-18 14:29:00,
2013-01-18 06:34:00,42.6,33.9,30.05,North,360,3.5,3.5,71,0.00,,SKC,0.00,0.0,WeatherDisplay:10.37,2013-01-18 14:34:00,
2013-01-18 06:39:00,42.7,33.9,30.05,North,360,3.5,3.5,71,0.00,,SKC,0.00,0.0,WeatherDisplay:10.37,2013-01-18 14:39:00,
2013-01-18 06:44:00,42.7,33.9,30.05,North,360,3.5,3.5,71,0.00,,SKC,0.00,0.0,WeatherDisplay:10.37,2013-01-18 14:44:00,
2013-01-18 06:49:00,42.6,33.9,30.05,North,360,3.5,3.5,71,0.00,,SKC,0.00,0.0,WeatherDisplay:10.37,2013-01-18 14:49:00,
2013-01-18 06:54:00,42.8,33.7,30.05,North,360,3.5,3.5,70,0.00,,SKC,0.00,0.0,WeatherDisplay:10.37,2013-01-18 14:54:00,
2013-01-18 06:59:00,42.9,33.4,30.05,North,360,3.5,3.5,69,0.00,,SKC,0.00,0.0,WeatherDisplay:10.37,2013-01-18 14:59:00,
2013-01-18 07:04:00,43.8,33.6,30.05,North,360,2.3,2.3,67,0.00,OVC,SKC,0.00,0.0,WeatherDisplay:10.37,2013-01-18 15:04:00,
2013-01-18 07:09:00,44.0,33.7,30.06,North,360,3.5,3.5,67,0.00,OVC,SKC,0.00,0.0,WeatherDisplay:10.37,2013-01-18 15:09:00,
2013-01-18 07:14:00,43.3,33.4,30.06,North,360,3.5,3.5,68,0.00,OVC,SKC,0.00,0.0,WeatherDisplay:10.37,2013-01-18 15:14:00,
2013-01-18 07:19:00,43.3,34.5,30.06,North,360,3.5,3.5,71,0.00,OVC,SKC,0.00,5.0,WeatherDisplay:10.37,2013-01-18 15:19:00,
2013-01-18 07:24:00,43.2,33.7,30.06,North,360,3.5,3.5,69,0.00,OVC,SKC,0.00,7.0,WeatherDisplay:10.37,2013-01-18 15:24:00,
2013-01-18 07:29:00,42.4,33.7,30.06,North,360,3.5,3.5,71,0.00,OVC,SKC,0.00,16.0,WeatherDisplay:10.37,2013-01-18 15:29:00,
2013-01-18 07:34:00,42.6,33.9,30.06,North,360,3.5,3.5,71,0.00,OVC,SKC,0.00,21.0,WeatherDisplay:10.37,2013-01-18 15:34:00,
2013-01-18 07:39:00,43.1,34.0,30.06,North,360,3.5,3.5,70,0.00,OVC,SKC,0.00,30.0,WeatherDisplay:10.37,2013-01-18 15:39:00,
2013-01-18 07:44:00,43.1,33.6,30.06,North,360,2.3,2.3,69,0.00,OVC,SKC,0.00,39.0,WeatherDisplay:10.37,2013-01-18 15:44:00,
2013-01-18 07:49:00,43.2,33.7,30.06,North,360,3.5,3.5,69,0.00,OVC,SKC,0.00,49.0,WeatherDisplay:10.37,2013-01-18 15:49:00,
2013-01-18 07:54:00,43.6,34.1,30.07,North,360,3.5,3.5,69,0.00,OVC,SKC,0.00,62.0,WeatherDisplay:10.37,2013-01-18 15:54:00,
2013-01-18 07:59:00,43.6,34.1,30.07,North,360,2.3,2.3,69,0.00,OVC,SKC,0.00,76.0,WeatherDisplay:10.37,2013-01-18 15:59:00,
2013-01-18 08:04:00,43.9,34.4,30.07,North,360,0.0,0.0,69,0.00,OVC,SKC,0.00,90.0,WeatherDisplay:10.37,2013-01-18 16:04:00,
2013-01-18 08:09:00,44.5,34.6,30.07,North,360,0.0,0.0,68,0.00,OVC,SKC,0.00,102.0,WeatherDisplay:10.37,2013-01-18 16:09:00,
2013-01-18 08:14:00,45.5,35.5,30.07,North,360,0.0,0.0,68,0.00,OVC,SKC,0.00,118.0,WeatherDisplay:10.37,2013-01-18 16:14:00,
2013-01-18 08:19:00,46.8,36.4,30.07,North,360,0.0,0.0,67,0.00,OVC,SKC,0.00,134.0,WeatherDisplay:10.37,2013-01-18 16:19:00,
2013-01-18 08:24:00,47.7,37.3,30.09,North,360,0.0,0.0,67,0.00,OVC,SKC,0.00,148.0,WeatherDisplay:10.37,2013-01-18 16:24:00,
2013-01-18 08:29:00,48.1,37.7,30.09,North,360,1.2,0.0,67,0.00,OVC,SKC,0.00,163.0,WeatherDisplay:10.37,2013-01-18 16:29:00,
2013-01-18 08:34:00,48.3,38.6,30.09,North,360,1.2,0.0,69,0.00,OVC,SKC,0.00,176.0,WeatherDisplay:10.37,2013-01-18 16:34:00,
2013-01-18 08:39:00,48.6,39.3,30.09,North,360,3.5,3.5,70,0.00,OVC,SKC,0.00,190.0,WeatherDisplay:10.37,2013-01-18 16:39:00,
2013-01-18 08:44:00,49.0,40.0,30.09,South,171,2.3,2.3,71,0.00,OVC,SKC,0.00,206.0,WeatherDisplay:10.37,2013-01-18 16:44:00,
2013-01-18 08:49:00,49.7,40.7,30.09,South,171,2.0,2.0,71,0.00,OVC,SKC,0.00,218.0,WeatherDisplay:10.37,2013-01-18 16:49:00,
2013-01-18 08:54:00,50.0,40.2,30.10,SSE,160,1.2,1.2,69,0.00,OVC,SKC,0.00,230.0,WeatherDisplay:10.37,2013-01-18 16:54:00,
2013-01-18 08:59:00,50.0,39.8,30.10,SSE,159,2.3,2.3,68,0.00,OVC,SKC,0.00,244.0,WeatherDisplay:10.37,2013-01-18 16:59:00,
2013-01-18 09:04:00,50.1,39.9,30.10,East,89,3.0,3.0,68,0.00,OVC,SKC,0.00,258.0,WeatherDisplay:10.37,2013-01-18 17:04:00,
2013-01-18 09:09:00,50.3,39.8,30.10,East,89,3.5,3.5,67,0.00,OVC,SKC,0.00,272.0,WeatherDisplay:10.37,2013-01-18 17:09:00,
2013-01-18 09:14:00,50.5,39.6,30.10,East,89,2.3,2.3,66,0.00,OVC,SKC,0.00,285.0,WeatherDisplay:10.37,2013-01-18 17:14:00,
2013-01-18 09:19:00,50.8,39.5,30.10,East,89,2.3,2.3,65,0.00,OVC,SKC,0.00,301.0,WeatherDisplay:10.37,2013-01-18 17:19:00,
2013-01-18 09:24:00,51.1,39.3,30.10,East,89,3.5,3.5,64,0.00,OVC,SKC,0.00,313.0,WeatherDisplay:10.37,2013-01-18 17:24:00,
2013-01-18 09:29:00,51.8,40.0,30.10,East,88,2.3,2.3,64,0.00,OVC,SKC,0.00,323.0,WeatherDisplay:10.37,2013-01-18 17:29:00,
2013-01-18 09:34:00,52.3,40.5,30.10,East,88,3.5,3.5,64,0.00,OVC,SKC,0.00,338.0,WeatherDisplay:10.37,2013-01-18 17:34:00,
2013-01-18 09:39:00,52.5,40.7,30.10,East,98,4.0,4.0,64,0.00,OVC,SKC,0.00,350.0,WeatherDisplay:10.37,2013-01-18 17:39:00,
2013-01-18 09:44:00,52.3,40.9,30.10,ESE,110,2.3,2.3,65,0.00,OVC,SKC,0.00,362.0,WeatherDisplay:10.37,2013-01-18 17:44:00,
2013-01-18 09:49:00,52.4,40.2,30.10,SE,125,4.0,4.0,63,0.00,OVC,SKC,0.00,374.0,WeatherDisplay:10.37,2013-01-18 17:49:00,
2013-01-18 09:54:00,52.2,39.6,30.11,SE,126,3.5,3.5,62,0.00,OVC,SKC,0.00,381.0,WeatherDisplay:10.37,2013-01-18 17:54:00,
2013-01-18 09:59:00,52.6,39.9,30.11,SE,126,3.5,3.5,62,0.00,OVC,SKC,0.00,399.0,WeatherDisplay:10.37,2013-01-18 17:59:00,
2013-01-18 10:04:00,53.0,39.9,30.11,SE,124,4.0,4.0,61,0.00,OVC,SKC,0.00,408.0,WeatherDisplay:10.37,2013-01-18 18:04:00,
2013-01-18 10:09:00,53.7,39.7,30.11,ESE,121,2.3,2.3,59,0.00,OVC,SKC,0.00,420.0,WeatherDisplay:10.37,2013-01-18 18:09:00,
2013-01-18 10:14:00,53.6,38.7,30.11,East,101,3.5,3.5,57,0.00,OVC,SKC,0.00,431.0,WeatherDisplay:10.37,2013-01-18 18:14:00,
2013-01-18 10:19:00,53.9,39.5,30.11,East,86,3.5,3.5,58,0.00,OVC,SKC,0.00,439.0,WeatherDisplay:10.37,2013-01-18 18:19:00,
2013-01-18 10:24:00,54.2,39.3,30.10,East,94,2.3,2.3,57,0.00,OVC,SKC,0.00,450.0,WeatherDisplay:10.37,2013-01-18 18:24:00,
2013-01-18 10:29:00,54.6,40.6,30.10,ESE,116,4.0,4.0,59,0.00,OVC,SKC,0.00,461.0,WeatherDisplay:10.37,2013-01-18 18:29:00,
2013-01-18 10:34:00,54.4,39.9,30.10,SE,126,3.5,3.5,58,0.00,OVC,SKC,0.00,469.0,WeatherDisplay:10.37,2013-01-18 18:34:00,
2013-01-18 10:39:00,54.4,39.5,30.10,SE,125,2.3,2.3,57,0.00,OVC,SKC,0.00,476.0,WeatherDisplay:10.37,2013-01-18 18:39:00,
2013-01-18 10:44:00,54.5,39.6,30.10,ESE,123,4.0,4.0,57,0.00,OVC,SKC,0.00,485.0,WeatherDisplay:10.37,2013-01-18 18:44:00,
2013-01-18 10:49:00,54.7,39.3,30.10,ESE,123,4.0,4.0,56,0.00,OVC,SKC,0.00,496.0,WeatherDisplay:10.37,2013-01-18 18:49:00,
2013-01-18 10:54:00,54.4,37.6,30.10,SE,130,3.5,3.5,53,0.00,OVC,SKC,0.00,503.0,WeatherDisplay:10.37,2013-01-18 18:54:00,
2013-01-18 10:59:00,54.0,38.6,30.10,SE,128,2.3,2.3,56,0.00,OVC,SKC,0.00,510.0,WeatherDisplay:10.37,2013-01-18 18:59:00,
2013-01-18 11:04:00,54.6,38.3,30.10,SE,128,4.0,4.0,54,0.00,OVC,SKC,0.00,519.0,WeatherDisplay:10.37,2013-01-18 19:04:00,
2013-01-18 11:09:00,54.9,38.6,30.09,SE,128,1.2,1.2,54,0.00,OVC,SKC,0.00,527.0,WeatherDisplay:10.37,2013-01-18 19:09:00,
2013-01-18 11:15:00,55.5,38.6,30.09,SE,128,2.3,2.3,53,0.00,OVC,SKC,0.00,534.0,WeatherDisplay:10.37,2013-01-18 19:15:00,
2013-01-18 11:20:00,55.5,38.6,30.09,SE,125,4.6,4.6,53,0.00,OVC,SKC,0.00,538.0,WeatherDisplay:10.37,2013-01-18 19:20:00,
2013-01-18 11:25:00,55.7,38.8,30.09,SE,125,1.2,1.2,53,0.00,OVC,SKC,0.00,533.0,WeatherDisplay:10.37,2013-01-18 19:25:00,
2013-01-18 11:30:00,56.3,39.4,30.09,SE,124,5.0,5.0,53,0.00,OVC,SKC,0.00,526.0,WeatherDisplay:10.37,2013-01-18 19:30:00,
2013-01-18 11:35:00,56.0,38.6,30.09,ESE,123,2.3,2.3,52,0.00,OVC,SKC,0.00,547.0,WeatherDisplay:10.37,2013-01-18 19:35:00,
2013-01-18 11:40:00,56.8,39.8,30.08,ESE,123,0.0,0.1,53,0.00,OVC,SKC,0.00,555.0,WeatherDisplay:10.37,2013-01-18 19:40:00,
2013-01-18 11:45:00,58.2,40.1,30.08,SE,134,3.5,3.5,51,0.00,OVC,SKC,0.00,557.0,WeatherDisplay:10.37,2013-01-18 19:45:00,
2013-01-18 11:50:00,58.5,39.9,30.08,SE,132,2.3,2.3,50,0.00,OVC,SKC,0.00,563.0,WeatherDisplay:10.37,2013-01-18 19:50:00,
2013-01-18 11:55:00,58.1,39.5,30.07,SE,132,3.5,3.5,50,0.00,OVC,SKC,0.00,564.0,WeatherDisplay:10.37,2013-01-18 19:55:00,
2013-01-18 12:00:00,58.6,39.5,30.07,SE,132,2.3,2.3,49,0.00,OVC,SKC,0.00,566.0,WeatherDisplay:10.37,2013-01-18 20:00:00,
2013-01-18 12:05:00,59.1,39.4,30.07,SE,130,3.5,3.5,48,0.00,OVC,SKC,0.00,568.0,WeatherDisplay:10.37,2013-01-18 20:05:00,
2013-01-18 12:10:00,58.7,39.0,30.06,SSE,147,3.5,3.5,48,0.00,OVC,SKC,0.00,570.0,WeatherDisplay:10.37,2013-01-18 20:10:00,
2013-01-18 12:15:00,59.0,39.9,30.06,SSE,147,2.3,0.0,49,0.00,OVC,SKC,0.00,570.0,WeatherDisplay:10.37,2013-01-18 20:15:00,
2013-01-18 12:20:00,60.1,39.2,30.06,SE,146,2.0,2.0,46,0.00,OVC,SKC,0.00,570.0,WeatherDisplay:10.37,2013-01-18 20:20:00,
2013-01-18 12:25:00,60.8,39.9,30.06,SE,134,2.0,2.0,46,0.00,OVC,SKC,0.00,571.0,WeatherDisplay:10.37,2013-01-18 20:25:00,
2013-01-18 12:30:00,61.4,39.3,30.06,East,92,4.6,4.6,44,0.00,OVC,SKC,0.00,571.0,WeatherDisplay:10.37,2013-01-18 20:30:00,
2013-01-18 12:35:00,61.9,39.1,30.06,ESE,103,3.5,3.5,43,0.00,OVC,SKC,0.00,571.0,WeatherDisplay:10.37,2013-01-18 20:35:00,
2013-01-18 12:40:00,62.4,39.0,30.05,ESE,107,4.0,4.0,42,0.00,OVC,SKC,0.00,571.0,WeatherDisplay:10.37,2013-01-18 20:40:00,
2013-01-18 12:45:00,62.6,40.4,30.05,SSE,159,3.5,3.5,44,0.00,OVC,SKC,0.00,570.0,WeatherDisplay:10.37,2013-01-18 20:45:00,
2013-01-18 12:50:00,62.0,40.4,30.05,SSE,156,2.3,2.3,45,0.00,OVC,SKC,0.00,570.0,WeatherDisplay:10.37,2013-01-18 20:50:00,
2013-01-18 12:55:00,62.0,40.4,30.04,SE,144,3.5,3.5,45,0.00,OVC,SKC,0.00,568.0,WeatherDisplay:10.37,2013-01-18 20:55:00,
2013-01-18 13:00:00,62.0,40.4,30.04,SE,140,2.3,2.3,45,0.00,OVC,SKC,0.00,564.0,WeatherDisplay:10.37,2013-01-18 21:00:00,
2013-01-18 13:05:00,62.0,40.4,30.04,SE,136,3.5,3.5,45,0.00,OVC,SKC,0.00,561.0,WeatherDisplay:10.37,2013-01-18 21:05:00,
2013-01-18 13:10:00,62.1,40.5,30.04,SE,136,3.5,3.5,45,0.00,OVC,SKC,0.00,559.0,WeatherDisplay:10.37,2013-01-18 21:10:00,
2013-01-18 13:15:00,62.5,40.3,30.04,SE,136,3.5,3.5,44,0.00,OVC,SKC,0.00,555.0,WeatherDisplay:10.37,2013-01-18 21:15:00,
2013-01-18 13:20:00,62.9,41.2,30.04,SSE,150,2.3,2.3,45,0.00,OVC,SKC,0.00,550.0,WeatherDisplay:10.37,2013-01-18 21:20:00,
2013-01-18 13:25:00,63.0,40.7,30.04,SSE,150,2.0,2.0,44,0.00,OVC,SKC,0.00,547.0,WeatherDisplay:10.37,2013-01-18 21:25:00,
2013-01-18 13:30:00,63.2,40.9,30.04,SSE,150,4.0,4.0,44,0.00,OVC,SKC,0.00,543.0,WeatherDisplay:10.37,2013-01-18 21:30:00,
2013-01-18 13:35:00,63.4,41.7,30.04,SSE,150,2.3,2.3,45,0.00,OVC,SKC,0.00,534.0,WeatherDisplay:10.37,2013-01-18 21:35:00,
2013-01-18 13:40:00,63.8,41.5,30.03,South,170,4.6,4.6,44,0.00,OVC,SKC,0.00,517.0,WeatherDisplay:10.37,2013-01-18 21:40:00,
2013-01-18 13:45:00,64.4,41.4,30.03,SSE,162,2.3,2.3,43,0.00,OVC,SKC,0.00,524.0,WeatherDisplay:10.37,2013-01-18 21:45:00,
2013-01-18 13:50:00,64.5,41.5,30.03,SSE,159,2.3,2.3,43,0.00,OVC,SKC,0.00,515.0,WeatherDisplay:10.37,2013-01-18 21:50:00,
2013-01-18 13:55:00,64.8,41.7,30.03,SSE,159,0.0,4.0,43,0.00,OVC,SKC,0.00,510.0,WeatherDisplay:10.37,2013-01-18 21:55:00,
2013-01-18 14:00:00,65.3,41.6,30.03,SSE,158,2.3,2.3,42,0.00,OVC,SKC,0.00,503.0,WeatherDisplay:10.37,2013-01-18 22:00:00,
2013-01-18 14:05:00,65.9,42.1,30.03,SSE,158,1.0,4.0,42,0.00,OVC,SKC,0.00,492.0,WeatherDisplay:10.37,2013-01-18 22:05:00,
2013-01-18 14:10:00,66.4,41.3,30.03,SSE,158,2.0,5.0,40,0.00,OVC,SKC,0.00,485.0,WeatherDisplay:10.37,2013-01-18 22:10:00,
2013-01-18 14:15:00,66.5,40.8,30.03,SSE,160,4.0,4.0,39,0.00,OVC,SKC,0.00,475.0,WeatherDisplay:10.37,2013-01-18 22:15:00,
2013-01-18 14:20:00,66.7,40.3,30.03,SSE,155,5.0,5.0,38,0.00,OVC,SKC,0.00,466.0,WeatherDisplay:10.37,2013-01-18 22:20:00,
2013-01-18 14:25:00,67.1,39.9,30.02,SSE,156,2.0,5.0,37,0.00,OVC,SKC,0.00,457.0,WeatherDisplay:10.37,2013-01-18 22:25:00,
2013-01-18 14:30:00,67.5,39.6,30.02,SSE,161,1.0,5.0,36,0.00,OVC,SKC,0.00,446.0,WeatherDisplay:10.37,2013-01-18 22:30:00,
2013-01-18 14:35:00,67.8,39.9,30.02,South,180,2.0,5.0,36,0.00,OVC,SKC,0.00,436.0,WeatherDisplay:10.37,2013-01-18 22:35:00,
2013-01-18 14:40:00,67.2,40.7,30.02,SSW,202,2.0,5.0,38,0.00,OVC,SKC,0.00,425.0,WeatherDisplay:10.37,2013-01-18 22:40:00,
2013-01-18 14:45:00,66.0,40.9,30.02,SW,223,2.0,6.0,40,0.00,OVC,SKC,0.00,413.0,WeatherDisplay:10.37,2013-01-18 22:45:00,
2013-01-18 14:50:00,65.6,41.9,30.02,SW,231,3.5,3.5,42,0.00,OVC,SKC,0.00,403.0,WeatherDisplay:10.37,2013-01-18 22:50:00,
2013-01-18 14:55:00,65.3,41.0,30.02,SW,233,4.6,4.6,41,0.00,OVC,SKC,0.00,392.0,WeatherDisplay:10.37,2013-01-18 22:55:00,
2013-01-18 15:00:00,65.0,41.9,30.02,SW,233,2.0,5.0,43,0.00,OVC,SKC,0.00,380.0,WeatherDisplay:10.37,2013-01-18 23:00:00,
2013-01-18 15:05:00,64.2,41.8,30.02,SW,230,3.0,6.0,44,0.00,OVC,SKC,0.00,369.0,WeatherDisplay:10.37,2013-01-18 23:05:00,
2013-01-18 15:10:00,64.0,42.8,30.02,SW,226,0.0,4.0,46,0.00,OVC,SKC,0.00,355.0,WeatherDisplay:10.37,2013-01-18 23:10:00,
2013-01-18 15:15:00,64.0,42.2,30.02,SW,224,1.0,5.0,45,0.00,OVC,SKC,0.00,343.0,WeatherDisplay:10.37,2013-01-18 23:15:00,
2013-01-18 15:20:00,64.6,42.8,30.02,SW,225,3.5,3.5,45,0.00,OVC,SKC,0.00,330.0,WeatherDisplay:10.37,2013-01-18 23:20:00,
2013-01-18 15:25:00,65.0,41.9,30.02,SW,225,1.0,3.0,43,0.00,SCT,SKC,0.00,316.0,WeatherDisplay:10.37,2013-01-18 23:25:00,
2013-01-18 15:30:00,65.6,40.6,30.02,SW,225,3.5,3.5,40,0.00,CLR,SKC,0.00,306.0,WeatherDisplay:10.37,2013-01-18 23:30:00,
2013-01-18 15:35:00,65.7,40.7,30.02,SW,225,3.0,3.0,40,0.00,CLR,SKC,0.00,290.0,WeatherDisplay:10.37,2013-01-18 23:35:00,
2013-01-18 15:40:00,65.9,40.9,30.02,SW,225,3.5,3.5,40,0.00,CLR,SKC,0.00,278.0,WeatherDisplay:10.37,2013-01-18 23:40:00,
2013-01-18 15:45:00,65.6,39.3,30.02,SW,225,2.0,4.0,38,0.00,CLR,SKC,0.00,264.0,WeatherDisplay:10.37,2013-01-18 23:45:00,
2013-01-18 15:50:00,65.1,39.5,30.02,SW,225,3.5,3.5,39,0.00,CLR,SKC,0.00,248.0,WeatherDisplay:10.37,2013-01-18 23:50:00,
2013-01-18 15:55:00,65.0,40.7,30.02,SW,225,3.5,3.5,41,0.00,CLR,SKC,0.00,232.0,WeatherDisplay:10.37,2013-01-18 23:55:00,
2013-01-18 16:00:00,64.8,39.9,30.02,SW,225,2.3,2.3,40,0.00,CLR,SKC,0.00,209.0,WeatherDisplay:10.37,2013-01-19 00:00:00,
2013-01-18 16:05:00,64.7,39.8,30.02,SW,225,2.3,2.3,40,0.00,CLR,SKC,0.00,165.0,WeatherDisplay:10.37,2013-01-19 00:05:00,
2013-01-18 16:10:00,64.9,39.3,30.02,SW,225,0.0,0.0,39,0.00,CLR,SKC,0.00,192.0,WeatherDisplay:10.37,2013-01-19 00:10:00,
2013-01-18 16:15:00,65.6,40.0,30.02,SW,225,0.0,0.0,39,0.00,CLR,SKC,0.00,179.0,WeatherDisplay:10.37,2013-01-19 00:15:00,
2013-01-18 16:20:00,65.9,39.6,30.02,SW,225,2.3,2.3,38,0.00,CLR,SKC,0.00,163.0,WeatherDisplay:10.37,2013-01-19 00:20:00,
2013-01-18 16:25:00,65.4,39.1,30.02,SW,225,3.0,3.0,38,0.00,CLR,SKC,0.00,135.0,WeatherDisplay:10.37,2013-01-19 00:25:00,
2013-01-18 16:30:00,64.0,39.8,30.02,SW,225,3.5,3.5,41,0.00,CLR,SKC,0.00,134.0,WeatherDisplay:10.37,2013-01-19 00:30:00,
2013-01-18 16:35:00,63.0,40.1,30.02,SW,225,2.3,2.3,43,0.00,FEW,SKC,0.00,114.0,WeatherDisplay:10.37,2013-01-19 00:35:00,
2013-01-18 16:40:00,62.5,40.3,30.02,SW,225,2.3,2.3,44,0.00,SCT,SKC,0.00,98.0,WeatherDisplay:10.37,2013-01-19 00:40:00,
2013-01-18 16:45:00,62.1,41.6,30.02,SW,225,1.0,3.0,47,0.00,BKN,SKC,0.00,84.0,WeatherDisplay:10.37,2013-01-19 00:45:00,
2013-01-18 16:50:00,61.6,41.7,30.02,SW,225,1.2,0.0,48,0.00,BKN,SKC,0.00,63.0,WeatherDisplay:10.37,2013-01-19 00:50:00,
2013-01-18 16:55:00,61.3,42.0,30.02,SW,225,1.2,1.2,49,0.00,BKN,SKC,0.00,47.0,WeatherDisplay:10.37,2013-01-19 00:55:00,
2013-01-18 17:00:00,60.8,42.0,30.02,SW,225,0.0,0.0,50,0.00,BKN,SKC,0.00,26.0,WeatherDisplay:10.37,2013-01-19 01:00:00,
2013-01-18 17:05:00,60.5,41.2,30.02,SW,225,0.0,0.0,49,0.00,BKN,SKC,0.00,23.0,WeatherDisplay:10.37,2013-01-19 01:05:00,
2013-01-18 17:10:00,60.3,41.0,30.02,SW,225,0.0,0.0,49,0.00,BKN,SKC,0.00,18.0,WeatherDisplay:10.37,2013-01-19 01:10:00,
2013-01-18 17:15:00,60.1,40.9,30.02,SW,225,0.0,0.0,49,0.00,OVC,SKC,0.00,9.0,WeatherDisplay:10.37,2013-01-19 01:15:00,
2013-01-18 17:20:00,59.8,41.1,30.02,SW,225,0.0,0.0,50,0.00,OVC,SKC,0.00,5.0,WeatherDisplay:10.37,2013-01-19 01:20:00,
2013-01-18 17:25:00,59.0,41.9,30.02,SW,225,1.2,1.2,53,0.00,OVC,SKC,0.00,0.0,WeatherDisplay:10.37,2013-01-19 01:25:00,
2013-01-18 17:30:00,58.2,43.9,30.02,SW,225,0.0,2.0,59,0.00,OVC,SKC,0.00,0.0,WeatherDisplay:10.37,2013-01-19 01:30:00,
2013-01-18 17:35:00,57.5,44.6,30.02,SW,225,0.0,1.0,62,0.00,OVC,SKC,0.00,0.0,WeatherDisplay:10.37,2013-01-19 01:35:00,
2013-01-18 17:40:00,56.7,44.7,30.03,SW,225,2.3,2.3,64,0.00,OVC,SKC,0.00,0.0,WeatherDisplay:10.37,2013-01-19 01:40:00,
2013-01-18 17:45:00,56.3,44.2,30.03,SW,225,0.0,2.0,64,0.00,OVC,SKC,0.00,0.0,WeatherDisplay:10.37,2013-01-19 01:45:00,
2013-01-18 17:50:00,55.8,43.4,30.03,SW,225,2.3,2.3,63,0.00,,SKC,0.00,0.0,WeatherDisplay:10.37,2013-01-19 01:50:00,
2013-01-18 17:55:00,55.5,43.1,30.03,SW,225,0.0,2.0,63,0.00,,SKC,0.00,0.0,WeatherDisplay:10.37,2013-01-19 01:55:00,
2013-01-18 18:00:00,55.3,42.5,30.03,SW,225,2.3,2.3,62,0.00,,SKC,0.00,0.0,WeatherDisplay:10.37,2013-01-19 02:00:00,
2013-01-18 18:05:00,55.3,42.1,30.03,SW,225,2.3,2.3,61,0.00,,SKC,0.00,0.0,WeatherDisplay:10.37,2013-01-19 02:05:00,
2013-01-18 18:10:00,55.3,42.1,30.03,SW,225,2.3,2.3,61,0.00,,SKC,0.00,0.0,WeatherDisplay:10.37,2013-01-19 02:10:00,
2013-01-18 18:15:00,55.6,41.5,30.03,SW,232,3.0,3.0,59,0.00,,SKC,0.00,0.0,WeatherDisplay:10.37,2013-01-19 02:15:00,
2013-01-18 18:20:00,55.9,41.3,30.03,North,9,3.5,3.5,58,0.00,,SKC,0.00,0.0,WeatherDisplay:10.37,2013-01-19 02:20:00,
2013-01-18 18:25:00,56.1,41.1,30.04,NNE,19,3.5,3.5,57,0.00,,SKC,0.00,0.0,WeatherDisplay:10.37,2013-01-19 02:25:00,
2013-01-18 18:30:00,56.3,41.3,30.04,North,5,5.8,5.8,57,0.00,,SKC,0.00,0.0,WeatherDisplay:10.37,2013-01-19 02:30:00,
2013-01-18 18:35:00,56.2,41.2,30.04,North,10,3.0,7.0,57,0.00,,SKC,0.00,0.0,WeatherDisplay:10.37,2013-01-19 02:35:00,
2013-01-18 18:40:00,55.9,41.4,30.04,NNE,13,2.0,5.0,58,0.00,,SKC,0.00,0.0,WeatherDisplay:10.37,2013-01-19 02:40:00,
2013-01-18 18:45:00,55.5,41.0,30.04,NNE,13,3.0,5.0,58,0.00,,SKC,0.00,0.0,WeatherDisplay:10.37,2013-01-19 02:45:00,
2013-01-18 18:50:00,55.1,41.0,30.04,NNE,12,3.0,5.0,59,0.00,,SKC,0.00,0.0,WeatherDisplay:10.37,2013-01-19 02:50:00,
2013-01-18 18:55:00,54.6,41.0,30.04,North,355,4.6,4.6,60,0.00,,SKC,0.00,0.0,WeatherDisplay:10.37,2013-01-19 02:55:00,
2013-01-18 19:00:00,54.5,40.9,30.04,North,355,3.5,3.5,60,0.00,,SKC,0.00,0.0,WeatherDisplay:10.37,2013-01-19 03:00:00,
2013-01-18 19:05:00,54.2,40.6,30.04,North,359,3.0,6.0,60,0.00,,SKC,0.00,0.0,WeatherDisplay:10.37,2013-01-19 03:05:00,
2013-01-18 19:10:00,53.8,40.7,30.04,North,9,3.5,3.7,61,0.00,,SKC,0.00,0.0,WeatherDisplay:10.37,2013-01-19 03:10:00,
2013-01-18 19:15:00,53.5,40.8,30.04,North,9,3.0,5.0,62,0.00,,SKC,0.00,0.0,WeatherDisplay:10.37,2013-01-19 03:15:00,
2013-01-18 19:20:00,53.3,40.6,30.04,North,9,4.6,4.6,62,0.00,,SKC,0.00,0.0,WeatherDisplay:10.37,2013-01-19 03:20:00,
2013-01-18 19:25:00,53.1,40.4,30.04,North,5,3.5,3.5,62,0.00,,SKC,0.00,0.0,WeatherDisplay:10.37,2013-01-19 03:25:00,
2013-01-18 19:30:00,52.8,40.1,30.04,North,5,6.9,6.9,62,0.00,,SKC,0.00,0.0,WeatherDisplay:10.37,2013-01-19 03:30:00,
2013-01-18 19:35:00,52.6,39.9,30.04,North,5,3.5,3.5,62,0.00,,SKC,0.00,0.0,WeatherDisplay:10.37,2013-01-19 03:35:00,
2013-01-18 19:40:00,52.3,40.1,30.04,North,5,3.5,3.5,63,0.00,,SKC,0.00,0.0,WeatherDisplay:10.37,2013-01-19 03:40:00,
2013-01-18 19:45:00,52.2,39.6,30.04,North,5,3.5,3.5,62,0.00,,SKC,0.00,0.0,WeatherDisplay:10.37,2013-01-19 03:45:00,
2013-01-18 19:50:00,51.9,39.3,30.04,North,5,4.6,4.6,62,0.00,,SKC,0.00,0.0,WeatherDisplay:10.37,2013-01-19 03:50:00,
2013-01-18 19:55:00,51.7,39.5,30.04,North,5,3.0,4.0,63,0.00,,SKC,0.00,0.0,WeatherDisplay:10.37,2013-01-19 03:55:00,
2013-01-18 20:00:00,51.7,39.1,30.04,North,5,3.0,6.0,62,0.00,,SKC,0.00,0.0,WeatherDisplay:10.37,2013-01-19 04:00:00,
2013-01-18 20:05:00,51.7,38.7,30.04,NNE,18,5.8,5.8,61,0.00,,SKC,0.00,0.0,WeatherDisplay:10.37,2013-01-19 04:05:00,
2013-01-18 20:10:00,51.7,38.7,30.04,North,360,5.8,5.8,61,0.00,,SKC,0.00,0.0,WeatherDisplay:10.37,2013-01-19 04:10:00,
2013-01-18 20:15:00,51.6,38.6,30.04,North,6,5.0,7.0,61,0.00,,SKC,0.00,0.0,WeatherDisplay:10.37,2013-01-19 04:15:00,
2013-01-18 20:20:00,51.6,38.6,30.04,North,5,6.0,6.0,61,0.00,,SKC,0.00,0.0,WeatherDisplay:10.37,2013-01-19 04:20:00,
2013-01-18 20:25:00,51.4,38.4,30.04,North,4,5.0,7.0,61,0.00,,SKC,0.00,0.0,WeatherDisplay:10.37,2013-01-19 04:25:00,
2013-01-18 20:30:00,51.1,38.5,30.04,North,5,3.5,3.5,62,0.00,,SKC,0.00,0.0,WeatherDisplay:10.37,2013-01-19 04:30:00,
2013-01-18 20:35:00,51.0,38.4,30.04,North,5,4.0,4.0,62,0.00,,SKC,0.00,0.0,WeatherDisplay:10.37,2013-01-19 04:35:00,
2013-01-18 20:40:00,51.0,38.4,30.05,North,9,3.5,3.5,62,0.00,,SKC,0.00,0.0,WeatherDisplay:10.37,2013-01-19 04:40:00,
2013-01-18 20:45:00,51.0,38.0,30.05,NNE,12,4.6,4.6,61,0.00,,SKC,0.00,0.0,WeatherDisplay:10.37,2013-01-19 04:45:00,
2013-01-18 20:50:00,50.9,37.9,30.05,NNE,12,3.5,3.5,61,0.00,,SKC,0.00,0.0,WeatherDisplay:10.37,2013-01-19 04:50:00,
2013-01-18 20:55:00,50.6,37.6,30.05,NE,36,4.6,4.6,61,0.00,,SKC,0.00,0.0,WeatherDisplay:10.37,2013-01-19 04:55:00,
2013-01-18 21:00:00,50.7,37.3,30.05,NE,41,3.5,3.5,60,0.00,,SKC,0.00,0.0,WeatherDisplay:10.37,2013-01-19 05:00:00,
2013-01-18 21:01:00,50.7,37.3,30.05,NNE,28,4.0,4.0,60,0.00,,SKC,0.00,0.0,WeatherDisplay:10.37,2013-01-19 05:01:00,
2013-01-18 21:03:00,50.6,37.2,30.05,North,9,4.6,4.6,60,0.00,,SKC,0.00,0.0,WeatherDisplay:10.37,2013-01-19 05:03:00,
2013-01-18 21:08:00,50.5,37.5,30.05,NNE,14,4.6,4.6,61,0.00,,SKC,0.00,0.0,WeatherDisplay:10.37,2013-01-19 05:08:00,
2013-01-18 21:13:00,50.3,36.9,30.05,North,9,4.6,4.6,60,0.00,,SKC,0.00,0.0,WeatherDisplay:10.37,2013-01-19 05:13:00,
2013-01-18 21:18:00,49.9,37.0,30.05,North,5,5.8,5.8,61,0.00,,SKC,0.00,0.0,WeatherDisplay:10.37,2013-01-19 05:18:00,
2013-01-18 21:23:00,49.5,37.0,30.05,North,360,3.5,3.5,62,0.00,,SKC,0.00,0.0,WeatherDisplay:10.37,2013-01-19 05:23:00,
2013-01-18 21:28:00,49.2,36.7,30.05,North,5,4.6,4.6,62,0.00,,SKC,0.00,0.0,WeatherDisplay:10.37,2013-01-19 05:28:00,
2013-01-18 21:33:00,49.3,36.8,30.05,NNE,16,4.6,4.6,62,0.00,,SKC,0.00,0.0,WeatherDisplay:10.37,2013-01-19 05:33:00,
2013-01-18 21:38:00,49.1,36.6,30.06,North,11,4.6,4.6,62,0.00,,SKC,0.00,0.0,WeatherDisplay:10.37,2013-01-19 05:38:00,
2013-01-18 21:43:00,49.0,36.5,30.06,North,5,4.6,4.6,62,0.00,,SKC,0.00,0.0,WeatherDisplay:10.37,2013-01-19 05:43:00,
2013-01-18 21:48:00,49.0,36.5,30.06,North,5,3.5,3.5,62,0.00,,SKC,0.00,0.0,WeatherDisplay:10.37,2013-01-19 05:48:00,
2013-01-18 21:53:00,48.7,36.7,30.06,North,5,3.5,3.5,63,0.00,,SKC,0.00,0.0,WeatherDisplay:10.37,2013-01-19 05:53:00,
2013-01-18 21:58:00,48.2,37.0,30.06,North,350,3.5,3.5,65,0.00,,SKC,0.00,0.0,WeatherDisplay:10.37,2013-01-19 05:58:00,
2013-01-18 22:03:00,47.8,36.6,30.06,North,350,4.6,4.6,65,0.00,,SKC,0.00,0.0,WeatherDisplay:10.37,2013-01-19 06:03:00,
2013-01-18 22:08:00,47.4,36.6,30.06,North,351,3.5,3.5,66,0.00,,SKC,0.00,0.0,WeatherDisplay:10.37,2013-01-19 06:08:00,
2013-01-18 22:13:00,47.2,36.8,30.06,North,351,3.5,3.5,67,0.00,,SKC,0.00,0.0,WeatherDisplay:10.37,2013-01-19 06:13:00,
2013-01-18 22:18:00,46.9,36.9,30.06,North,351,4.0,4.0,68,0.00,,SKC,0.00,0.0,WeatherDisplay:10.37,2013-01-19 06:18:00,
2013-01-18 22:23:00,46.7,36.7,30.06,North,351,4.6,4.6,68,0.00,,SKC,0.00,0.0,WeatherDisplay:10.37,2013-01-19 06:23:00,
2013-01-18 22:28:00,46.5,36.9,30.06,North,351,5.0,5.0,69,0.00,,SKC,0.00,0.0,WeatherDisplay:10.37,2013-01-19 06:28:00,
2013-01-18 22:33:00,46.2,36.6,30.06,North,351,3.5,3.5,69,0.00,,SKC,0.00,0.0,WeatherDisplay:10.37,2013-01-19 06:33:00,
2013-01-18 22:38:00,46.1,36.5,30.06,North,351,4.0,4.0,69,0.00,,SKC,0.00,0.0,WeatherDisplay:10.37,2013-01-19 06:38:00,
2013-01-18 22:43:00,46.1,36.5,30.06,North,351,4.6,4.6,69,0.00,,SKC,0.00,0.0,WeatherDisplay:10.37,2013-01-19 06:43:00,
2013-01-18 22:48:00,46.0,36.4,30.06,North,351,4.0,4.0,69,0.00,,SKC,0.00,0.0,WeatherDisplay:10.37,2013-01-19 06:48:00,
2013-01-18 22:53:00,45.9,36.3,30.06,North,351,4.6,4.6,69,0.00,,SKC,0.00,0.0,WeatherDisplay:10.37,2013-01-19 06:53:00,
2013-01-18 22:58:00,45.9,35.9,30.06,North,355,4.6,4.6,68,0.00,,SKC,0.00,0.0,WeatherDisplay:10.37,2013-01-19 06:58:00,
2013-01-18 23:03:00,46.1,35.7,30.06,North,355,3.5,3.5,67,0.00,,SKC,0.00,0.0,WeatherDisplay:10.37,2013-01-19 07:03:00,
2013-01-18 23:08:00,46.1,35.7,30.06,North,360,4.6,4.6,67,0.00,,SKC,0.00,0.0,WeatherDisplay:10.37,2013-01-19 07:08:00,
2013-01-18 23:13:00,46.1,35.7,30.06,North,5,4.6,4.6,67,0.00,,SKC,0.00,0.0,WeatherDisplay:10.37,2013-01-19 07:13:00,
2013-01-18 23:18:00,46.0,35.7,30.06,North,9,3.5,3.5,67,0.00,,SKC,0.00,0.0,WeatherDisplay:10.37,2013-01-19 07:18:00,
2013-01-18 23:23:00,45.9,35.6,30.06,North,9,3.5,3.5,67,0.00,,SKC,0.00,0.0,WeatherDisplay:10.37,2013-01-19 07:23:00,
2013-01-18 23:28:00,45.6,35.6,30.06,North,9,3.5,3.5,68,0.00,,SKC,0.00,0.0,WeatherDisplay:10.37,2013-01-19 07:28:00,
2013-01-18 23:33:00,45.4,35.5,30.06,North,9,3.5,3.5,68,0.00,,SKC,0.00,0.0,WeatherDisplay:10.37,2013-01-19 07:33:00,
2013-01-18 23:38:00,45.3,35.4,30.06,North,9,4.0,4.0,68,0.00,,SKC,0.00,0.0,WeatherDisplay:10.37,2013-01-19 07:38:00,
2013-01-18 23:43:00,45.4,35.5,30.06,North,9,3.5,3.5,68,0.00,,SKC,0.00,0.0,WeatherDisplay:10.37,2013-01-19 07:43:00,
2013-01-18 23:48:00,45.4,35.5,30.06,North,9,4.0,4.0,68,0.00,,SKC,0.00,0.0,WeatherDisplay:10.37,2013-01-19 07:48:00,
2013-01-18 23:53:00,45.4,35.1,30.06,North,9,3.5,3.5,67,0.00,,SKC,0.00,0.0,WeatherDisplay:10.37,2013-01-19 07:53:00,
2013-01-18 23:58:00,45.5,35.2,30.06,North,9,4.6,4.6,67,0.00,,SKC,0.00,0.0,WeatherDisplay:10.37,2013-01-19 07:58:00,